Time;durP1;ratioP1;P1;durP2;ratioP2;P2;SDS_P1;SDS_P2;PMS_P1;PMS_P2;Temp;Humidity;BMP_temperature;BMP_pressure;BME280_temperature;BME280_humidity;BME280_pressure;Samples;Min_cycle;Max_cycle;Signal;HPM_P1;HPM_P2
2022/03/11 00:01:16;;;;;;;7.97;3.42;;;3.10;99.90;;;;;;6189595;23;20351;-86
2022/03/11 00:03:42;;;;;;;6.05;3.42;;;3.70;99.90;;;;;;6216393;23;20095;-85
2022/03/11 00:06:08;;;;;;;6.65;3.30;;;4.30;99.90;;;;;;6189665;23;20024;-88
2022/03/11 00:08:34;;;;;;;8.90;3.33;;;3.10;99.90;;;;;;6189581;23;20020;-87
2022/03/11 00:10:59;;;;;;;6.82;2.97;;;3.90;99.90;;;;;;6189716;23;20020;-87
2022/03/11 00:13:25;;;;;;;6.18;2.78;;;4.30;99.90;;;;;;6216646;23;20088;-87
2022/03/11 00:15:51;;;;;;;6.57;2.83;;;3.10;99.90;;;;;;6216414;23;20445;-88
2022/03/11 00:18:18;;;;;;;5.75;3.03;;;2.80;99.90;;;;;;6189516;23;20454;-88
2022/03/11 00:20:44;;;;;;;5.53;3.15;;;3.10;99.90;;;;;;6216560;23;20464;-87
2022/03/11 00:23:10;;;;;;;8.18;2.80;;;4.30;99.90;;;;;;6216395;23;20055;-88
2022/03/11 00:25:35;;;;;;;4.93;2.58;;;4.40;99.90;;;;;;6189400;23;20073;-88
2022/03/11 00:28:01;;;;;;;5.00;2.58;;;3.80;99.90;;;;;;6216237;23;20017;-88
2022/03/11 00:30:28;;;;;;;5.07;2.88;;;3.90;99.90;;;;;;6216103;23;20016;-87
2022/03/11 00:32:54;;;;;;;6.70;2.72;;;3.40;99.90;;;;;;6164888;23;20366;-88
2022/03/11 00:35:20;;;;;;;7.18;3.03;;;4.20;99.90;;;;;;6189789;23;20102;-88
2022/03/11 00:37:46;;;;;;;5.65;2.63;;;3.70;99.90;;;;;;6189660;23;20021;-88
2022/03/11 00:40:13;;;;;;;8.07;3.25;;;3.90;99.90;;;;;;6189641;23;20031;-88
2022/03/11 00:42:39;;;;;;;4.97;2.28;;;3.50;99.90;;;;;;6216214;23;20052;-88
2022/03/11 00:45:06;;;;;;;7.03;3.13;;;2.60;99.90;;;;;;6215991;23;20019;-87
2022/03/11 00:47:31;;;;;;;5.80;2.50;;;2.60;99.90;;;;;;6165020;23;20051;-83
2022/03/11 00:49:57;;;;;;;7.03;3.08;;;2.80;99.90;;;;;;6215949;23;20344;-88
2022/03/11 00:52:23;;;;;;;5.82;2.70;;;3.20;99.90;;;;;;6189208;23;20056;-88
2022/03/11 00:54:49;;;;;;;6.97;2.88;;;2.90;99.90;;;;;;6216192;23;20083;-88
2022/03/11 00:57:16;;;;;;;8.50;3.03;;;2.30;99.90;;;;;;6188946;23;20096;-88
2022/03/11 00:59:42;;;;;;;5.30;2.58;;;3.60;99.90;;;;;;6163230;23;20028;-87
2022/03/11 01:02:08;;;;;;;6.72;3.20;;;2.30;99.90;;;;;;6189366;23;20021;-87
2022/03/11 01:04:34;;;;;;;4.82;2.55;;;3.40;99.90;;;;;;6189210;23;20541;-87
2022/03/11 01:07:00;;;;;;;4.97;2.33;;;3.10;99.90;;;;;;6189674;23;20017;-88
2022/03/11 01:09:26;;;;;;;6.75;2.65;;;2.90;99.90;;;;;;6188685;23;20025;-88
2022/03/11 01:11:52;;;;;;;7.97;3.55;;;3.50;99.90;;;;;;6189009;23;20055;-88
2022/03/11 01:14:18;;;;;;;6.80;3.10;;;2.50;99.90;;;;;;6189310;23;20395;-88
2022/03/11 01:16:43;;;;;;;7.75;3.97;;;3.20;99.90;;;;;;6189372;23;20017;-88
2022/03/11 01:26:31;;;;;;;8.52;3.42;;;2.20;99.90;;;;;;6215730;23;20094;-88
2022/03/11 01:28:57;;;;;;;5.65;2.60;;;2.60;99.90;;;;;;6215913;23;20017;-87
2022/03/11 01:31:23;;;;;;;10.50;3.60;;;3.20;99.90;;;;;;6188422;23;20021;-88
2022/03/11 01:33:49;;;;;;;7.55;3.85;;;3.00;99.90;;;;;;6215877;23;20013;-86
2022/03/11 01:36:15;;;;;;;8.93;3.95;;;3.00;99.90;;;;;;6215017;23;20023;-88
2022/03/11 01:38:41;;;;;;;8.32;4.00;;;2.10;99.90;;;;;;6164526;23;20051;-88
2022/03/11 01:41:09;;;;;;;6.30;3.00;;;1.30;99.90;;;;;;6164418;23;20028;-88
2022/03/11 01:43:57;;;;;;;6.57;3.30;;;3.00;99.90;;;;;;6215598;23;20016;-88
2022/03/11 01:46:22;;;;;;;7.88;3.50;;;2.30;99.90;;;;;;6215620;23;20436;-88
2022/03/11 01:48:48;;;;;;;7.47;3.47;;;2.90;99.90;;;;;;6188395;23;20021;-88
2022/03/11 01:51:15;;;;;;;8.40;3.63;;;1.90;99.90;;;;;;6188705;23;20025;-88
2022/03/11 01:53:40;;;;;;;7.05;3.80;;;2.90;99.90;;;;;;6188788;23;20447;-87
2022/03/11 01:56:06;;;;;;;9.80;5.00;;;1.30;99.90;;;;;;6214914;23;20032;-88
2022/03/11 01:58:33;;;;;;;9.38;4.43;;;2.50;99.90;;;;;;6214938;23;20012;-87
2022/03/11 02:00:59;;;;;;;9.77;4.07;;;3.10;99.90;;;;;;6188975;23;20027;-88
2022/03/11 02:03:24;;;;;;;7.75;3.67;;;2.40;99.90;;;;;;6215316;23;20378;-87
2022/03/11 02:05:50;;;;;;;8.85;3.92;;;1.90;99.90;;;;;;6215329;23;20023;-88
2022/03/11 02:08:15;;;;;;;7.00;3.65;;;2.50;99.90;;;;;;6188613;23;20020;-87
2022/03/11 02:10:41;;;;;;;11.52;4.40;;;2.20;99.90;;;;;;6188237;23;20328;-88
2022/03/11 02:13:07;;;;;;;11.48;5.03;;;2.90;99.90;;;;;;6188171;23;20078;-87
2022/03/11 02:15:33;;;;;;;7.82;4.00;;;1.90;99.90;;;;;;6188317;23;20027;-87
2022/03/11 02:17:59;;;;;;;10.93;4.38;;;2.00;99.90;;;;;;6215412;23;20020;-87
2022/03/11 02:20:25;;;;;;;10.23;4.45;;;3.00;99.90;;;;;;6188331;23;20516;-87
2022/03/11 02:22:52;;;;;;;12.40;4.57;;;2.10;99.90;;;;;;6215241;23;20020;-87
2022/03/11 02:25:18;;;;;;;9.65;4.78;;;2.70;99.90;;;;;;6215056;23;20088;-88
2022/03/11 02:27:47;;;;;;;10.88;5.07;;;1.90;99.90;;;;;;6189303;23;20094;-88
2022/03/11 02:30:18;;;;;;;11.25;4.72;;;3.10;99.90;;;;;;6188311;23;20017;-87
2022/03/11 02:32:44;;;;;;;9.55;5.20;;;2.20;99.90;;;;;;6214452;23;20020;-87
2022/03/11 02:35:14;;;;;;;12.07;5.88;;;2.70;99.90;;;;;;6187866;23;20027;-88
2022/03/11 02:37:40;;;;;;;11.40;5.32;;;2.60;99.90;;;;;;6163717;23;20094;-88
2022/03/11 02:40:06;;;;;;;16.13;6.78;;;1.80;99.90;;;;;;6188603;23;20028;-88
2022/03/11 02:42:33;;;;;;;13.98;6.00;;;1.70;99.90;;;;;;6215291;23;20067;-87
2022/03/11 02:45:00;;;;;;;17.85;8.77;;;2.40;99.90;;;;;;6188822;23;20052;-88
2022/03/11 02:47:27;;;;;;;16.10;8.38;;;0.80;99.90;;;;;;6215039;23;20021;-86
2022/03/11 02:49:53;;;;;;;17.50;7.75;;;0.80;99.90;;;;;;6188177;23;20082;-88
2022/03/11 02:52:18;;;;;;;16.75;8.05;;;1.90;99.90;;;;;;6215161;23;20013;-87
2022/03/11 02:54:44;;;;;;;18.42;8.65;;;3.00;99.90;;;;;;6163269;23;20358;-86
2022/03/11 02:57:10;;;;;;;15.48;8.82;;;3.20;99.90;;;;;;6187948;23;20012;-88
2022/03/11 02:59:36;;;;;;;17.83;8.30;;;1.00;99.90;;;;;;6187777;23;20021;-87
2022/03/11 03:02:04;;;;;;;17.92;8.10;;;1.60;99.90;;;;;;6214585;23;20032;-88
2022/03/11 03:04:30;;;;;;;16.77;7.90;;;2.10;99.90;;;;;;6188556;23;20020;-87
2022/03/11 03:06:56;;;;;;;15.32;7.57;;;2.50;99.90;;;;;;6187549;23;20351;-87
2022/03/11 03:09:22;;;;;;;20.48;9.52;;;1.80;99.90;;;;;;6188450;23;20024;-87
2022/03/11 03:11:47;;;;;;;21.98;10.75;;;3.40;99.90;;;;;;6214402;23;20443;-86
2022/03/11 03:14:14;;;;;;;23.55;10.65;;;3.50;99.90;;;;;;6188527;23;20027;-88
2022/03/11 03:16:39;;;;;;;21.70;10.32;;;2.60;99.90;;;;;;6188140;23;20459;-88
2022/03/11 03:19:05;;;;;;;20.98;10.07;;;1.40;99.90;;;;;;6187628;23;20027;-87
2022/03/11 03:21:31;;;;;;;19.75;10.05;;;1.80;99.90;;;;;;6187683;23;20335;-88
2022/03/11 03:23:56;;;;;;;21.27;10.50;;;3.20;99.90;;;;;;6187750;23;20027;-88
2022/03/11 03:26:22;;;;;;;21.80;9.93;;;3.00;99.90;;;;;;6188023;23;20387;-87
2022/03/11 03:28:48;;;;;;;22.05;9.82;;;2.20;99.90;;;;;;6187676;23;20027;-87
2022/03/11 03:31:16;;;;;;;18.77;9.75;;;1.50;99.90;;;;;;6188261;23;20020;-88
2022/03/11 03:33:42;;;;;;;26.05;10.90;;;2.60;99.90;;;;;;6187825;23;20016;-88
2022/03/11 03:36:08;;;;;;;20.58;9.90;;;2.30;99.90;;;;;;6214451;23;20023;-88
2022/03/11 03:38:33;;;;;;;20.90;10.70;;;3.00;99.90;;;;;;6162838;23;20355;-88
2022/03/11 03:40:59;;;;;;;19.30;10.15;;;2.20;99.90;;;;;;6188645;23;20028;-87
2022/03/11 03:43:25;;;;;;;20.45;10.07;;;2.20;99.90;;;;;;6187870;23;20017;-88
2022/03/11 03:45:51;;;;;;;24.08;11.90;;;3.50;99.90;;;;;;6163058;23;20025;-88
2022/03/11 03:48:16;;;;;;;21.80;11.23;;;3.30;99.90;;;;;;6187054;23;20016;-88
2022/03/11 03:50:42;;;;;;;20.75;10.25;;;2.40;99.90;;;;;;6187964;23;20440;-87
2022/03/11 03:53:08;;;;;;;19.65;10.50;;;3.50;99.90;;;;;;6214424;23;20382;-88
2022/03/11 03:55:37;;;;;;;17.08;8.90;;;2.70;99.90;;;;;;6214757;23;20016;-88
2022/03/11 03:58:02;;;;;;;22.73;9.77;;;0.90;99.90;;;;;;6187706;23;20021;-88
2022/03/11 04:00:29;;;;;;;18.73;9.40;;;1.30;99.90;;;;;;6214014;23;20060;-87
2022/03/11 04:02:54;;;;;;;20.55;9.27;;;2.50;99.90;;;;;;6214587;23;20021;-87
2022/03/11 04:05:20;;;;;;;23.15;9.65;;;3.30;99.90;;;;;;6187857;23;20017;-88
2022/03/11 04:07:47;;;;;;;23.48;10.65;;;2.00;99.90;;;;;;6188319;23;20039;-87
2022/03/11 04:10:14;;;;;;;24.33;10.90;;;2.00;99.90;;;;;;6187571;23;20025;-88
2022/03/11 04:12:40;;;;;;;23.10;10.95;;;2.10;99.90;;;;;;6188035;23;20016;-87
2022/03/11 04:15:07;;;;;;;20.38;10.25;;;2.00;99.90;;;;;;6187688;23;20056;-87
2022/03/11 04:17:33;;;;;;;24.30;11.18;;;1.90;99.90;;;;;;6214562;23;20437;-87
2022/03/11 04:20:02;;;;;;;21.83;11.27;;;1.60;99.90;;;;;;6214767;23;20110;-88
2022/03/11 04:22:30;;;;;;;23.02;11.63;;;3.10;99.90;;;;;;6187616;23;20395;-87
2022/03/11 04:24:56;;;;;;;24.33;11.25;;;2.00;99.90;;;;;;6187366;23;20017;-88
2022/03/11 04:27:21;;;;;;;25.38;10.82;;;1.80;99.90;;;;;;6214199;23;20099;-87
2022/03/11 04:29:47;;;;;;;19.92;10.13;;;3.20;99.90;;;;;;6214048;23;20078;-88
2022/03/11 04:32:13;;;;;;;21.23;10.43;;;2.70;99.90;;;;;;6187561;23;20017;-87
2022/03/11 04:34:39;;;;;;;18.65;9.80;;;2.40;99.90;;;;;;6187903;23;20017;-88
2022/03/11 04:37:04;;;;;;;19.02;10.45;;;2.40;99.90;;;;;;6215218;23;20105;-88
2022/03/11 04:39:30;;;;;;;19.65;10.23;;;1.90;99.90;;;;;;6216493;23;20533;-88
2022/03/11 04:41:57;;;;;;;23.88;11.57;;;2.90;99.90;;;;;;6216038;23;20021;-88
2022/03/11 04:44:22;;;;;;;24.65;11.23;;;3.20;99.90;;;;;;6215975;23;20024;-88
2022/03/11 04:46:49;;;;;;;19.05;10.00;;;1.10;99.90;;;;;;6164198;23;20756;-88
2022/03/11 04:49:16;;;;;;;21.58;10.73;;;2.60;99.90;;;;;;6189058;23;20009;-87
2022/03/11 04:51:42;;;;;;;20.30;10.25;;;1.80;99.90;;;;;;6215992;23;20431;-87
2022/03/11 04:54:08;;;;;;;21.85;9.88;;;2.70;99.90;;;;;;6215547;23;20509;-88
2022/03/11 04:56:34;;;;;;;23.55;11.82;;;2.90;99.90;;;;;;6215636;23;20092;-87
2022/03/11 04:59:00;;;;;;;23.35;10.20;;;1.60;99.90;;;;;;6189290;23;20032;-87
2022/03/11 05:01:26;;;;;;;18.35;9.57;;;2.20;99.90;;;;;;6189711;23;20024;-87
2022/03/11 05:03:53;;;;;;;21.42;10.63;;;2.60;99.90;;;;;;6215536;23;20021;-88
2022/03/11 05:06:18;;;;;;;19.38;10.07;;;1.60;99.90;;;;;;6215998;23;20017;-87
2022/03/11 05:08:44;;;;;;;22.13;10.32;;;1.50;99.90;;;;;;6216020;23;20083;-87
2022/03/11 05:11:10;;;;;;;20.80;9.48;;;2.30;99.90;;;;;;6189438;23;20021;-88
2022/03/11 05:13:36;;;;;;;25.50;11.27;;;1.60;99.90;;;;;;6189128;23;20016;-88
2022/03/11 05:16:02;;;;;;;24.05;12.13;;;1.80;99.90;;;;;;6216002;23;20020;-83
2022/03/11 05:18:28;;;;;;;27.30;12.15;;;1.50;99.90;;;;;;6189480;23;20023;-88
2022/03/11 05:20:54;;;;;;;24.13;11.45;;;2.40;99.90;;;;;;6164050;23;20020;-87
2022/03/11 05:23:20;;;;;;;23.20;11.40;;;0.70;99.90;;;;;;6188831;23;20111;-87
2022/03/11 05:25:46;;;;;;;27.92;12.25;;;1.20;99.90;;;;;;6188887;23;20107;-87
2022/03/11 05:28:12;;;;;;;21.90;11.50;;;3.20;99.90;;;;;;6215946;23;20044;-88
2022/03/11 05:30:38;;;;;;;23.77;10.93;;;2.90;99.90;;;;;;6188609;23;20027;-87
2022/03/11 05:33:05;;;;;;;22.88;11.20;;;0.80;99.90;;;;;;6188946;23;20012;-87
2022/03/11 05:35:31;;;;;;;24.35;11.25;;;1.60;99.90;;;;;;6214603;23;20016;-87
2022/03/11 05:37:56;;;;;;;19.58;11.00;;;2.70;99.90;;;;;;6188195;23;20300;-87
2022/03/11 05:40:22;;;;;;;20.10;10.25;;;1.50;99.90;;;;;;6215556;23;20021;-88
2022/03/11 05:42:48;;;;;;;25.33;11.60;;;0.90;99.90;;;;;;6215794;23;20023;-88
2022/03/11 05:45:14;;;;;;;22.58;11.65;;;2.40;99.90;;;;;;6215754;23;20409;-87
2022/03/11 05:47:40;;;;;;;25.55;12.02;;;0.30;99.90;;;;;;6189073;23;20017;-88
2022/03/11 05:57:28;;;;;;;22.48;11.32;;;1.40;99.90;;;;;;6215752;23;20015;-87
2022/03/11 05:59:54;;;;;;;21.30;11.00;;;1.50;99.90;;;;;;6188425;23;20020;-88
2022/03/11 06:02:19;;;;;;;23.00;11.65;;;1.70;99.90;;;;;;6214325;23;20324;-87
2022/03/11 06:04:45;;;;;;;21.23;10.82;;;1.50;99.90;;;;;;6188649;23;20027;-88
2022/03/11 06:07:11;;;;;;;20.55;10.45;;;2.90;99.90;;;;;;6215356;23;20471;-87
2022/03/11 06:09:39;;;;;;;22.52;12.35;;;1.50;99.90;;;;;;6189000;23;20108;-85
2022/03/11 06:12:09;;;;;;;22.73;10.25;;;2.10;99.90;;;;;;6215949;23;20012;-87
2022/03/11 06:14:39;;;;;;;18.95;9.90;;;0.50;99.90;;;;;;6163478;23;20016;-87
2022/03/11 06:17:05;;;;;;;21.23;10.23;;;1.50;99.90;;;;;;6215700;23;20020;-87
2022/03/11 06:19:31;;;;;;;22.70;10.25;;;1.20;99.90;;;;;;6188332;23;20020;-88
2022/03/11 06:21:57;;;;;;;21.23;11.10;;;1.00;99.90;;;;;;6189641;23;20055;-86
2022/03/11 06:24:24;;;;;;;25.63;12.32;;;2.80;99.90;;;;;;6190903;23;20019;-86
2022/03/11 06:26:55;;;;;;;22.50;11.07;;;2.50;99.90;;;;;;6165101;23;20402;-86
2022/03/11 06:29:21;;;;;;;23.60;9.88;;;1.40;99.90;;;;;;6187963;23;20095;-87
2022/03/11 06:31:47;;;;;;;25.33;10.65;;;1.60;99.90;;;;;;6163037;23;20106;-88
2022/03/11 06:34:20;;;;;;;22.55;10.95;;;2.10;99.90;;;;;;6187816;23;20455;-87
2022/03/11 06:36:46;;;;;;;19.73;9.82;;;2.60;99.90;;;;;;6188001;23;20032;-88
2022/03/11 06:39:13;;;;;;;21.42;11.35;;;1.40;99.90;;;;;;6215500;23;20459;-88
2022/03/11 06:41:41;;;;;;;20.27;10.45;;;1.30;99.90;;;;;;6215027;23;20051;-87
2022/03/11 06:44:07;;;;;;;21.15;9.98;;;0.50;99.90;;;;;;6214596;23;20391;-87
2022/03/11 06:46:36;;;;;;;26.15;11.30;;;1.80;99.90;;;;;;6215228;23;20079;-88
2022/03/11 06:49:05;;;;;;;20.73;10.60;;;2.70;99.90;;;;;;6214916;23;20439;-87
2022/03/11 06:51:34;;;;;;;22.35;11.05;;;1.80;99.90;;;;;;6215142;23;20023;-87
2022/03/11 06:57:03;;;;;;;22.50;11.00;;;1.50;99.90;;;;;;6215453;22;20025;-84
2022/03/11 06:59:33;;;;;;;19.23;9.93;;;1.50;99.90;;;;;;6187829;23;20031;-86
2022/03/11 07:03:03;;;;;;;22.85;9.90;;;1.10;99.90;;;;;;6215119;23;20004;-84
2022/03/11 07:09:53;;;;;;;;;;;;;;;;;;;;;
2022/03/11 07:16:08;;;;;;;22.60;9.85;;;1.80;99.90;;;;;;6213396;22;20032;-84
2022/03/11 07:18:41;;;;;;;18.90;10.43;;;2.00;99.90;;;;;;6155485;23;20401;-85
2022/03/11 07:28:37;;;;;;;23.42;11.57;;;2.30;99.90;;;;;;6214819;23;20016;-85
2022/03/11 07:31:10;;;;;;;21.75;10.27;;;3.30;99.90;;;;;;6214521;23;20024;-86
2022/03/11 07:33:41;;;;;;;25.85;10.70;;;4.00;99.90;;;;;;6212750;23;20024;-85
2022/03/11 07:36:15;;;;;;;26.02;11.82;;;3.70;99.90;;;;;;6214498;23;20032;-84
2022/03/11 07:38:57;;;;;;;20.85;10.00;;;2.10;99.90;;;;;;6214868;23;20016;-88
2022/03/11 07:41:22;;;;;;;22.60;10.40;;;4.40;99.90;;;;;;6212787;23;20028;-85
2022/03/11 07:44:01;;;;;;;20.88;10.90;;;4.30;99.90;;;;;;6212446;23;20019;-84
2022/03/11 07:46:30;;;;;;;24.77;10.90;;;4.40;99.90;;;;;;6214292;23;20443;-86
2022/03/11 07:48:57;;;;;;;24.00;10.48;;;3.20;99.90;;;;;;6214576;23;20423;-85
2022/03/11 07:51:25;;;;;;;26.85;11.80;;;3.30;99.90;;;;;;6213148;23;20095;-85
2022/03/11 07:53:51;;;;;;;18.83;10.70;;;4.00;99.90;;;;;;6214975;23;20028;-87
2022/03/11 07:56:17;;;;;;;23.00;10.65;;;4.10;99.90;;;;;;6215103;23;20284;-86
2022/03/11 07:58:43;;;;;;;17.80;9.55;;;4.80;99.90;;;;;;6215094;23;20017;-85
2022/03/11 08:01:09;;;;;;;18.55;9.25;;;4.70;99.90;;;;;;6213466;23;20477;-86
2022/03/11 08:03:41;;;;;;;21.38;10.48;;;3.70;99.90;;;;;;6215163;23;20056;-84
2022/03/11 08:06:10;;;;;;;23.05;10.45;;;5.00;99.90;;;;;;6215227;23;20019;-86
2022/03/11 08:08:37;;;;;;;18.58;10.15;;;5.30;99.90;;;;;;6215037;23;20054;-85
2022/03/11 08:11:04;;;;;;;25.23;9.70;;;4.50;99.90;;;;;;6215157;23;20017;-85
2022/03/11 08:13:29;;;;;;;20.48;10.18;;;5.10;99.90;;;;;;6215010;23;20044;-87
2022/03/11 08:15:56;;;;;;;21.13;10.82;;;4.20;99.90;;;;;;6214980;23;20025;-87
2022/03/11 08:18:22;;;;;;;20.13;9.65;;;4.50;99.90;;;;;;6216678;23;20016;-86
2022/03/11 08:20:48;;;;;;;21.38;10.23;;;4.40;99.90;;;;;;6214966;23;20017;-86
2022/03/11 08:23:13;;;;;;;17.35;9.60;;;5.40;99.90;;;;;;6215523;23;20083;-86
2022/03/11 08:25:40;;;;;;;19.13;10.10;;;5.30;99.90;;;;;;6216837;23;20054;-86
2022/03/11 08:28:10;;;;;;;21.77;11.13;;;4.70;99.90;;;;;;6214916;23;20021;-84
2022/03/11 08:30:37;;;;;;;21.35;10.30;;;4.80;99.90;;;;;;6216838;23;20047;-86
2022/03/11 08:33:02;;;;;;;20.40;10.13;;;4.90;99.90;;;;;;6216897;23;20013;-84
2022/03/11 08:35:28;;;;;;;24.77;10.52;;;5.00;99.90;;;;;;6215069;23;20023;-85
2022/03/11 08:37:54;;;;;;;18.77;10.15;;;5.50;99.90;;;;;;6214765;23;20067;-86
2022/03/11 08:40:23;;;;;;;22.58;11.38;;;5.40;99.90;;;;;;6216805;23;20019;-85
2022/03/11 08:42:50;;;;;;;18.48;9.73;;;5.40;99.90;;;;;;6214826;23;20017;-84
2022/03/11 08:45:19;;;;;;;21.02;10.00;;;6.40;99.90;;;;;;6214624;23;20099;-84
2022/03/11 08:47:45;;;;;;;22.77;10.13;;;5.80;99.90;;;;;;6214917;23;20017;-84
2022/03/11 08:50:11;;;;;;;21.08;10.50;;;5.60;99.90;;;;;;6214861;23;20021;-87
2022/03/11 08:52:37;;;;;;;19.95;10.80;;;6.50;99.90;;;;;;6214719;23;20075;-86
2022/03/11 08:55:04;;;;;;;24.17;11.70;;;5.90;99.90;;;;;;6216808;23;20439;-86
2022/03/11 08:57:29;;;;;;;18.70;10.70;;;5.90;99.90;;;;;;6216664;23;20013;-86
2022/03/11 08:59:55;;;;;;;22.85;10.30;;;6.00;99.90;;;;;;6214839;23;20021;-85
2022/03/11 09:02:22;;;;;;;19.92;10.02;;;7.10;99.90;;;;;;6214794;23;20346;-87
2022/03/11 09:04:49;;;;;;;19.05;9.73;;;6.60;99.90;;;;;;6214671;23;20022;-86
2022/03/11 09:07:14;;;;;;;20.60;10.82;;;7.30;99.90;;;;;;6216593;23;20021;-86
2022/03/11 09:09:41;;;;;;;21.92;11.10;;;6.40;99.90;;;;;;6214515;23;20024;-87
2022/03/11 09:12:07;;;;;;;23.48;12.32;;;6.20;99.90;;;;;;6215015;23;20067;-86
2022/03/11 09:14:34;;;;;;;22.30;11.02;;;6.60;99.90;;;;;;6214501;23;20444;-85
2022/03/11 09:17:00;;;;;;;17.27;9.48;;;6.70;99.90;;;;;;6216482;23;20382;-85
2022/03/11 09:19:26;;;;;;;21.35;10.20;;;7.90;99.90;;;;;;6214921;23;20052;-86
2022/03/11 09:21:51;;;;;;;19.13;10.25;;;7.50;99.90;;;;;;6216252;23;20087;-87
2022/03/11 09:24:17;;;;;;;19.85;10.27;;;7.60;99.90;;;;;;6214637;23;20016;-86
2022/03/11 09:26:47;;;;;;;19.83;10.52;;;7.00;99.90;;;;;;6216876;23;20016;-85
2022/03/11 09:29:13;;;;;;;22.38;10.52;;;7.10;99.90;;;;;;6214517;23;20016;-85
2022/03/11 09:31:39;;;;;;;20.42;10.65;;;7.10;99.90;;;;;;6217567;23;20016;-81
2022/03/11 09:34:05;;;;;;;22.00;11.15;;;7.20;99.90;;;;;;6216179;23;20460;-82
2022/03/11 09:36:31;;;;;;;22.58;10.60;;;7.30;99.90;;;;;;6216716;23;20055;-80
2022/03/11 09:38:56;;;;;;;18.38;10.13;;;7.30;99.90;;;;;;6216429;23;20367;-83
2022/03/11 09:41:29;;;;;;;19.38;10.35;;;7.40;99.90;;;;;;6217007;23;20021;-82
2022/03/11 09:43:56;;;;;;;18.58;10.52;;;7.50;99.90;;;;;;6215747;23;20309;-81
2022/03/11 09:46:23;;;;;;;20.20;10.05;;;7.60;99.90;;;;;;6213579;23;20016;-82
2022/03/11 09:48:53;;;;;;;18.35;9.70;;;7.70;99.90;;;;;;6215830;23;20021;-81
2022/03/11 09:51:22;;;;;;;20.20;10.52;;;7.80;99.90;;;;;;6215641;23;20024;-84
2022/03/11 09:53:48;;;;;;;20.92;10.82;;;7.90;99.90;;;;;;6215798;23;20036;-80
2022/03/11 09:56:19;;;;;;;19.50;9.70;;;8.00;99.90;;;;;;6215808;23;20023;-85
2022/03/11 09:58:45;;;;;;;19.42;10.18;;;8.10;99.90;;;;;;6215845;23;20473;-82
2022/03/11 10:01:10;;;;;;;22.02;10.25;;;8.10;99.90;;;;;;6216346;23;20016;-83
2022/03/11 10:03:36;;;;;;;19.63;11.32;;;8.20;99.90;;;;;;6215818;23;20088;-82
2022/03/11 10:06:02;;;;;;;19.88;10.10;;;8.20;99.90;;;;;;6215939;23;20017;-82
2022/03/11 10:08:40;;;;;;;18.45;10.00;;;8.20;99.90;;;;;;6215770;23;20100;-80
2022/03/11 10:11:25;;;;;;;16.50;9.18;;;8.30;99.90;;;;;;6215776;23;20020;-83
2022/03/11 10:13:53;;;;;;;17.08;9.30;;;8.30;99.90;;;;;;6215599;23;20047;-82
2022/03/11 10:16:20;;;;;;;17.38;10.35;;;8.50;99.90;;;;;;6215867;23;20027;-83
2022/03/11 10:19:01;;;;;;;19.45;9.75;;;8.90;99.90;;;;;;6215554;23;20027;-84
2022/03/11 10:21:47;;;;;;;20.15;10.27;;;8.70;99.90;;;;;;6213891;23;20082;-82
2022/03/11 10:24:14;;;;;;;20.10;9.88;;;8.70;99.80;;;;;;6215388;23;20020;-81
2022/03/11 10:26:42;;;;;;;20.15;10.27;;;9.00;99.80;;;;;;6215780;23;20020;-81
2022/03/11 10:29:19;;;;;;;17.90;10.35;;;9.30;99.80;;;;;;6214185;23;20027;-81
2022/03/11 10:31:47;;;;;;;18.65;9.45;;;8.90;99.60;;;;;;6215787;23;20024;-82
2022/03/11 10:34:26;;;;;;;17.42;9.88;;;9.10;99.20;;;;;;6214076;23;20070;-83
2022/03/11 10:36:53;;;;;;;18.52;9.43;;;9.10;98.90;;;;;;6216096;23;20023;-86
2022/03/11 10:39:27;;;;;;;16.60;9.15;;;9.20;98.20;;;;;;6213620;23;20399;-84
2022/03/11 10:41:54;;;;;;;16.27;9.13;;;9.20;98.40;;;;;;6213695;23;20024;-84
2022/03/11 10:44:26;;;;;;;16.42;9.77;;;9.50;97.90;;;;;;6215092;23;20020;-84
2022/03/11 10:46:55;;;;;;;16.67;9.60;;;9.70;97.70;;;;;;6213527;23;20036;-85
2022/03/11 10:49:31;;;;;;;15.77;8.73;;;9.40;97.10;;;;;;6215560;23;20343;-85
2022/03/11 10:51:58;;;;;;;16.23;9.80;;;9.70;97.90;;;;;;6214110;23;20012;-84
2022/03/11 10:54:26;;;;;;;17.58;9.10;;;9.60;97.10;;;;;;6214070;23;20063;-84
2022/03/11 10:56:53;;;;;;;18.25;9.93;;;9.10;96.20;;;;;;6213962;23;20048;-83
2022/03/11 10:59:21;;;;;;;14.32;8.68;;;9.80;95.80;;;;;;6214866;23;20096;-83
2022/03/11 11:01:50;;;;;;;17.38;9.10;;;9.80;95.10;;;;;;6215591;23;20071;-82
2022/03/11 11:04:17;;;;;;;17.25;8.52;;;9.80;94.30;;;;;;6213916;23;20012;-85
2022/03/11 11:06:45;;;;;;;16.38;9.20;;;10.10;95.00;;;;;;6214728;23;20515;-84
2022/03/11 11:09:13;;;;;;;15.40;8.75;;;9.80;94.70;;;;;;6188776;23;20020;-83
2022/03/11 11:11:40;;;;;;;15.05;8.68;;;9.80;93.30;;;;;;6188550;23;20451;-84
2022/03/11 11:14:10;;;;;;;15.88;8.98;;;9.80;93.70;;;;;;6212325;23;20023;-85
2022/03/11 11:16:40;;;;;;;15.90;8.80;;;9.80;91.80;;;;;;6188809;23;20063;-85
2022/03/11 11:19:10;;;;;;;18.38;9.13;;;9.90;93.80;;;;;;6215503;23;20020;-86
2022/03/11 11:21:38;;;;;;;15.00;8.68;;;10.30;94.40;;;;;;6213384;23;20175;-86
2022/03/11 11:24:09;;;;;;;16.95;8.90;;;10.10;93.90;;;;;;6215365;23;20391;-83
2022/03/11 11:26:38;;;;;;;15.32;8.57;;;10.20;93.10;;;;;;6188236;23;20097;-84
2022/03/11 11:29:04;;;;;;;14.32;8.88;;;10.20;93.10;;;;;;6213434;23;20028;-85
2022/03/11 11:31:31;;;;;;;16.15;9.70;;;10.60;92.50;;;;;;6213905;23;20020;-85
2022/03/11 11:33:57;;;;;;;15.88;9.85;;;10.70;92.50;;;;;;6215291;23;20055;-83
2022/03/11 11:36:39;;;;;;;15.88;9.82;;;10.50;92.20;;;;;;6188484;23;20044;-82
2022/03/11 11:39:11;;;;;;;13.85;7.90;;;10.50;90.90;;;;;;6213506;23;20021;-84
2022/03/11 11:41:37;;;;;;;18.77;9.45;;;10.50;90.40;;;;;;6215470;23;20351;-85
2022/03/11 11:44:05;;;;;;;18.45;9.57;;;10.50;90.50;;;;;;6213764;23;20023;-85
2022/03/11 11:46:33;;;;;;;14.88;8.20;;;10.40;89.30;;;;;;6216501;23;20340;-86
2022/03/11 11:49:04;;;;;;;14.68;7.68;;;10.50;91.00;;;;;;6217006;23;20013;-85
2022/03/11 11:51:32;;;;;;;14.93;8.90;;;10.60;89.10;;;;;;6217247;23;20020;-85
2022/03/11 11:54:08;;;;;;;15.95;8.43;;;10.70;90.00;;;;;;6216957;23;20020;-86
2022/03/11 11:56:39;;;;;;;16.85;9.40;;;10.80;90.40;;;;;;6216941;23;20023;-84
2022/03/11 11:59:14;;;;;;;15.32;7.90;;;11.00;89.50;;;;;;6215419;23;20098;-85
2022/03/11 12:01:40;;;;;;;17.35;8.10;;;11.10;88.20;;;;;;6215697;23;20482;-86
2022/03/11 12:04:24;;;;;;;11.95;6.90;;;11.10;87.30;;;;;;6217179;23;20016;-86
2022/03/11 12:07:09;;;;;;;15.43;8.73;;;11.30;88.90;;;;;;6217125;23;20063;-85
2022/03/11 12:10:01;;;;;;;17.67;8.70;;;11.30;88.40;;;;;;6215547;23;20042;-85
2022/03/11 12:12:33;;;;;;;17.48;8.50;;;11.30;83.30;;;;;;6217098;23;20012;-84
2022/03/11 12:15:04;;;;;;;12.85;7.88;;;11.40;84.50;;;;;;6215765;23;20012;-86
2022/03/11 12:17:36;;;;;;;15.30;8.18;;;11.50;85.80;;;;;;6215148;23;20464;-86
2022/03/11 12:20:39;;;;;;;15.07;7.80;;;11.60;85.10;;;;;;6215162;23;20021;-83
2022/03/11 12:23:11;;;;;;;13.82;8.00;;;11.70;81.70;;;;;;6216661;23;20016;-86
2022/03/11 12:26:01;;;;;;;15.00;8.13;;;11.60;79.40;;;;;;6216956;23;20020;-85
2022/03/11 12:28:33;;;;;;;14.43;7.95;;;11.60;83.10;;;;;;6216969;23;20021;-83
2022/03/11 12:31:03;;;;;;;11.95;8.00;;;11.70;81.70;;;;;;6216774;23;20023;-85
2022/03/11 12:33:51;;;;;;;11.25;6.85;;;11.80;78.40;;;;;;6214431;23;20067;-84
2022/03/11 12:36:19;;;;;;;15.85;8.05;;;11.80;78.70;;;;;;6214793;23;20020;-84
2022/03/11 12:38:49;;;;;;;15.23;7.65;;;11.90;78.40;;;;;;6215377;23;20387;-87
2022/03/11 12:41:19;;;;;;;15.90;7.97;;;11.90;78.20;;;;;;6215175;23;20017;-87
2022/03/11 12:43:51;;;;;;;12.02;6.90;;;11.90;80.50;;;;;;6215934;23;20100;-84
2022/03/11 12:46:17;;;;;;;11.75;7.75;;;11.90;79.50;;;;;;6215821;23;20083;-85
2022/03/11 12:48:48;;;;;;;12.90;7.65;;;12.00;79.00;;;;;;6216604;23;20478;-85
2022/03/11 12:51:21;;;;;;;15.50;8.10;;;12.00;78.80;;;;;;6215698;23;20439;-86
2022/03/11 12:53:54;;;;;;;13.82;7.90;;;12.10;77.50;;;;;;6214954;23;20019;-86
2022/03/11 12:59:35;;;;;;;11.82;7.30;;;12.00;76.30;;;;;;6097647;23;20029;-84
2022/03/11 13:02:08;;;;;;;11.27;6.68;;;12.30;74.10;;;;;;6098923;23;20157;-86
2022/03/11 13:04:44;;;;;;;13.88;7.20;;;12.50;77.60;;;;;;6099413;23;20485;-86
2022/03/11 13:07:17;;;;;;;13.10;7.18;;;12.60;76.70;;;;;;6099142;23;20014;-85
2022/03/11 13:09:43;;;;;;;13.23;7.57;;;12.50;73.30;;;;;;6098629;23;20025;-86
2022/03/11 13:12:31;;;;;;;14.10;7.35;;;12.60;70.70;;;;;;6098640;23;20022;-85
2022/03/11 13:15:40;;;;;;;12.35;6.93;;;12.60;72.60;;;;;;6123219;23;20037;-85
2022/03/11 13:18:20;;;;;;;14.88;7.88;;;13.50;73.70;;;;;;6128734;23;20032;-85
2022/03/11 13:21:10;;;;;;;13.38;6.10;;;12.70;72.80;;;;;;6185159;23;20079;-85
2022/03/11 13:23:50;;;;;;;11.68;6.85;;;12.60;69.80;;;;;;6159325;23;20123;-86
2022/03/11 13:26:46;;;;;;;11.00;6.30;;;12.60;69.70;;;;;;6186327;23;20029;-84